Startpagina
METAR-TAF:

METAR-TAF

Vliegvelden :

Talara, Peru

breedte: 04-34S, lengte: 081-15W, hoogte: 85 m

Actueel weer

Dit bericht is 17 minuten geleden gemaakt, om 14:00 UTC
Wind 16 kt uit het zuidzuidoosten
Temperatuur 22°C
Vochtigheid 69%
Druk 1015 hPa
Zicht 10 km of meer
geen wolken onder 1500 m en geen cumulonimbus

METAR: SPYL 231400Z 15016KT CAVOK 22/16 Q1015 RMK BIRD HAZARD RWY 17/35 PP000

Tijdstip: 09:17 (14:17 UTC)

Verwachting

Dit bericht is 3 uur en het 17 minuten geleden gemaakt, om 11:00 UTC
Verwachting geldig van 23 om 12 UTC tot 24 om 12 UTC
Wind 13 kt uit het zuiden
Zicht 10 km of meer
geen wolken onder 1500 m en geen cumulonimbus

TAF: SPYL 231100Z 2312/2412 17013KT CAVOK TX31/2319Z TN20/2411Z

Waarnemingen en weersverwachtingen van meer dan 4000 vliegvelden (METAR en TAF).

De beschikbare stations zijn de gele en rode punten op de kaart.

Ga met uw muis naar het station om de naam te zien.

Klik dan om waarnemingen en weersverwachtingen te zien.

kaart wijzigen: klik op de groene knoppen met een zwart kruis om in te zoomen, op de groene knop met een streepje om uit te zoomen of op de groene pijlen voor aangrenzende kaarten.


METAR-TAF: